sensor_id;sensor_type;location;lat;lon;timestamp;pressure;altitude;pressure_sealevel;temperature;humidity
10948;BME280;5526;42.070;24.752;2022-11-12T00:02:21;100332.78;;;11.82;93.94
10948;BME280;5526;42.070;24.752;2022-11-12T00:04:48;100348.59;;;11.93;94.00
10948;BME280;5526;42.070;24.752;2022-11-12T00:07:16;100379.25;;;11.94;94.95
10948;BME280;5526;42.070;24.752;2022-11-12T00:09:43;100356.06;;;11.85;96.00
10948;BME280;5526;42.070;24.752;2022-11-12T00:12:11;100357.66;;;11.86;95.99
10948;BME280;5526;42.070;24.752;2022-11-12T00:14:40;100347.56;;;11.83;96.34
10948;BME280;5526;42.070;24.752;2022-11-12T00:17:08;100350.34;;;11.88;97.38
10948;BME280;5526;42.070;24.752;2022-11-12T00:19:35;100362.50;;;12.00;96.79
10948;BME280;5526;42.070;24.752;2022-11-12T00:22:03;100393.94;;;12.13;97.38
10948;BME280;5526;42.070;24.752;2022-11-12T00:24:30;100339.31;;;11.91;97.36
10948;BME280;5526;42.070;24.752;2022-11-12T00:27:00;100348.03;;;11.91;97.76
10948;BME280;5526;42.070;24.752;2022-11-12T00:29:28;100326.25;;;11.73;97.97
10948;BME280;5526;42.070;24.752;2022-11-12T00:31:57;100377.31;;;12.01;99.76
10948;BME280;5526;42.070;24.752;2022-11-12T00:34:24;100357.34;;;11.82;100.00
10948;BME280;5526;42.070;24.752;2022-11-12T00:36:52;100320.72;;;11.63;100.00
10948;BME280;5526;42.070;24.752;2022-11-12T00:39:19;100338.72;;;11.66;99.95
10948;BME280;5526;42.070;24.752;2022-11-12T00:41:46;100372.47;;;11.98;100.00
10948;BME280;5526;42.070;24.752;2022-11-12T00:44:14;100320.38;;;11.71;100.00
10948;BME280;5526;42.070;24.752;2022-11-12T00:46:41;100379.94;;;12.01;100.00
10948;BME280;5526;42.070;24.752;2022-11-12T00:49:10;100352.72;;;11.78;100.00
10948;BME280;5526;42.070;24.752;2022-11-12T00:51:38;100318.38;;;11.55;100.00
10948;BME280;5526;42.070;24.752;2022-11-12T00:54:06;100324.06;;;11.70;100.00
10948;BME280;5526;42.070;24.752;2022-11-12T00:56:34;100368.34;;;11.91;100.00
10948;BME280;5526;42.070;24.752;2022-11-12T00:59:01;100318.50;;;11.60;100.00
10948;BME280;5526;42.070;24.752;2022-11-12T01:01:29;100334.50;;;11.76;100.00
10948;BME280;5526;42.070;24.752;2022-11-12T01:03:57;100367.53;;;12.02;100.00
10948;BME280;5526;42.070;24.752;2022-11-12T01:06:27;100312.34;;;11.66;100.00
10948;BME280;5526;42.070;24.752;2022-11-12T01:08:54;100302.25;;;11.63;100.00
10948;BME280;5526;42.070;24.752;2022-11-12T01:11:24;100313.28;;;11.71;100.00
10948;BME280;5526;42.070;24.752;2022-11-12T01:13:54;100306.97;;;11.61;100.00
10948;BME280;5526;42.070;24.752;2022-11-12T01:16:24;100320.72;;;11.63;100.00
10948;BME280;5526;42.070;24.752;2022-11-12T01:18:53;100302.34;;;11.56;100.00
10948;BME280;5526;42.070;24.752;2022-11-12T01:21:21;100303.81;;;11.52;100.00
10948;BME280;5526;42.070;24.752;2022-11-12T01:23:51;100299.16;;;11.54;100.00
10948;BME280;5526;42.070;24.752;2022-11-12T01:26:20;100292.47;;;11.52;100.00
10948;BME280;5526;42.070;24.752;2022-11-12T01:28:48;100288.69;;;11.48;100.00
10948;BME280;5526;42.070;24.752;2022-11-12T01:31:17;100320.75;;;11.74;100.00
10948;BME280;5526;42.070;24.752;2022-11-12T01:33:47;100355.72;;;11.93;99.78
10948;BME280;5526;42.070;24.752;2022-11-12T01:36:17;100333.94;;;11.86;99.43
10948;BME280;5526;42.070;24.752;2022-11-12T01:38:45;100297.69;;;11.70;99.60
10948;BME280;5526;42.070;24.752;2022-11-12T01:41:16;100350.00;;;11.96;99.03
10948;BME280;5526;42.070;24.752;2022-11-12T01:43:45;100296.19;;;11.74;99.33
10948;BME280;5526;42.070;24.752;2022-11-12T01:46:16;100306.19;;;11.83;99.19
10948;BME280;5526;42.070;24.752;2022-11-12T01:48:48;100296.31;;;11.79;98.69
10948;BME280;5526;42.070;24.752;2022-11-12T01:51:18;100262.47;;;11.64;97.52
10948;BME280;5526;42.070;24.752;2022-11-12T01:53:48;100303.53;;;11.95;97.14
10948;BME280;5526;42.070;24.752;2022-11-12T01:56:19;100303.28;;;11.96;97.24
10948;BME280;5526;42.070;24.752;2022-11-12T01:58:52;100304.00;;;11.92;97.46
10948;BME280;5526;42.070;24.752;2022-11-12T02:01:22;100319.72;;;11.98;97.91
10948;BME280;5526;42.070;24.752;2022-11-12T02:03:49;100343.66;;;12.08;98.64
10948;BME280;5526;42.070;24.752;2022-11-12T02:06:18;100329.09;;;12.06;99.01
10948;BME280;5526;42.070;24.752;2022-11-12T02:08:46;100314.31;;;11.93;98.29
10948;BME280;5526;42.070;24.752;2022-11-12T02:11:19;100301.38;;;11.92;98.71
10948;BME280;5526;42.070;24.752;2022-11-12T02:13:50;100339.66;;;12.06;98.91
10948;BME280;5526;42.070;24.752;2022-11-12T02:16:28;100303.88;;;11.75;98.45
10948;BME280;5526;42.070;24.752;2022-11-12T02:18:57;100284.72;;;11.68;98.36
10948;BME280;5526;42.070;24.752;2022-11-12T02:21:26;100312.69;;;11.92;98.80
10948;BME280;5526;42.070;24.752;2022-11-12T02:23:59;100320.84;;;11.91;98.10
10948;BME280;5526;42.070;24.752;2022-11-12T02:26:30;100331.31;;;11.97;97.96
10948;BME280;5526;42.070;24.752;2022-11-12T02:28:58;100352.41;;;11.97;97.91
10948;BME280;5526;42.070;24.752;2022-11-12T02:31:25;100302.38;;;11.68;98.23
10948;BME280;5526;42.070;24.752;2022-11-12T02:33:53;100288.59;;;11.54;98.21
10948;BME280;5526;42.070;24.752;2022-11-12T02:36:21;100332.88;;;11.87;98.43
10948;BME280;5526;42.070;24.752;2022-11-12T02:38:50;100303.22;;;11.80;99.06
10948;BME280;5526;42.070;24.752;2022-11-12T02:41:18;100288.72;;;11.71;99.74
10948;BME280;5526;42.070;24.752;2022-11-12T02:43:46;100322.81;;;11.95;100.00
10948;BME280;5526;42.070;24.752;2022-11-12T02:46:14;100349.44;;;12.05;100.00
10948;BME280;5526;42.070;24.752;2022-11-12T02:48:41;100281.03;;;11.69;100.00
10948;BME280;5526;42.070;24.752;2022-11-12T02:51:09;100288.28;;;11.74;100.00
10948;BME280;5526;42.070;24.752;2022-11-12T02:53:37;100283.13;;;11.67;100.00
10948;BME280;5526;42.070;24.752;2022-11-12T02:56:06;100311.56;;;11.88;100.00
10948;BME280;5526;42.070;24.752;2022-11-12T02:58:34;100330.72;;;11.95;99.97
10948;BME280;5526;42.070;24.752;2022-11-12T03:01:01;100276.69;;;11.63;100.00
10948;BME280;5526;42.070;24.752;2022-11-12T03:03:29;100332.31;;;11.96;100.00
10948;BME280;5526;42.070;24.752;2022-11-12T03:05:58;100284.59;;;11.75;100.00
10948;BME280;5526;42.070;24.752;2022-11-12T03:08:26;100286.91;;;11.71;100.00
10948;BME280;5526;42.070;24.752;2022-11-12T03:10:53;100289.28;;;11.50;100.00
10948;BME280;5526;42.070;24.752;2022-11-12T03:13:23;100297.34;;;11.14;100.00
10948;BME280;5526;42.070;24.752;2022-11-12T03:15:58;100328.41;;;11.23;100.00
10948;BME280;5526;42.070;24.752;2022-11-12T03:18:25;100308.97;;;11.06;100.00
10948;BME280;5526;42.070;24.752;2022-11-12T03:20:53;100339.53;;;11.25;100.00
10948;BME280;5526;42.070;24.752;2022-11-12T03:23:20;100300.72;;;11.03;100.00
10948;BME280;5526;42.070;24.752;2022-11-12T03:25:47;100303.88;;;11.11;100.00
10948;BME280;5526;42.070;24.752;2022-11-12T03:28:15;100284.81;;;11.09;100.00
10948;BME280;5526;42.070;24.752;2022-11-12T03:30:44;100295.50;;;11.14;100.00
10948;BME280;5526;42.070;24.752;2022-11-12T03:33:13;100280.38;;;11.10;100.00
10948;BME280;5526;42.070;24.752;2022-11-12T03:35:41;100303.88;;;11.23;100.00
10948;BME280;5526;42.070;24.752;2022-11-12T03:38:09;100296.75;;;11.12;100.00
10948;BME280;5526;42.070;24.752;2022-11-12T03:40:37;100347.81;;;11.40;100.00
10948;BME280;5526;42.070;24.752;2022-11-12T03:43:04;100281.69;;;11.01;100.00
10948;BME280;5526;42.070;24.752;2022-11-12T03:45:31;100343.31;;;11.29;100.00
10948;BME280;5526;42.070;24.752;2022-11-12T03:48:00;100321.28;;;11.24;100.00
10948;BME280;5526;42.070;24.752;2022-11-12T03:50:29;100285.72;;;11.03;100.00
10948;BME280;5526;42.070;24.752;2022-11-12T03:52:58;100288.72;;;11.07;100.00
10948;BME280;5526;42.070;24.752;2022-11-12T03:55:27;100325.31;;;11.26;100.00
10948;BME280;5526;42.070;24.752;2022-11-12T03:57:56;100344.16;;;11.41;100.00
10948;BME280;5526;42.070;24.752;2022-11-12T04:00:25;100344.13;;;11.30;100.00
10948;BME280;5526;42.070;24.752;2022-11-12T04:02:53;100287.69;;;11.08;100.00
10948;BME280;5526;42.070;24.752;2022-11-12T04:05:22;100341.88;;;11.45;100.00
10948;BME280;5526;42.070;24.752;2022-11-12T04:08:12;100333.81;;;11.28;100.00
10948;BME280;5526;42.070;24.752;2022-11-12T04:10:57;100318.66;;;11.24;100.00
10948;BME280;5526;42.070;24.752;2022-11-12T04:13:25;100285.44;;;11.11;100.00
10948;BME280;5526;42.070;24.752;2022-11-12T04:15:57;100283.56;;;11.12;100.00
10948;BME280;5526;42.070;24.752;2022-11-12T04:18:43;100314.09;;;11.31;100.00
10948;BME280;5526;42.070;24.752;2022-11-12T04:21:31;100351.06;;;11.54;100.00
10948;BME280;5526;42.070;24.752;2022-11-12T04:24:19;100344.63;;;11.50;100.00
10948;BME280;5526;42.070;24.752;2022-11-12T04:27:04;100304.44;;;11.25;100.00
10948;BME280;5526;42.070;24.752;2022-11-12T04:29:32;100293.44;;;11.16;100.00
10948;BME280;5526;42.070;24.752;2022-11-12T04:32:17;100336.22;;;11.30;100.00
10948;BME280;5526;42.070;24.752;2022-11-12T04:34:44;100292.06;;;11.14;100.00
10948;BME280;5526;42.070;24.752;2022-11-12T04:37:14;100328.22;;;11.36;100.00
10948;BME280;5526;42.070;24.752;2022-11-12T04:39:41;100282.41;;;11.08;100.00
10948;BME280;5526;42.070;24.752;2022-11-12T04:42:09;100326.69;;;11.29;100.00
10948;BME280;5526;42.070;24.752;2022-11-12T04:44:53;100288.13;;;11.05;100.00
10948;BME280;5526;42.070;24.752;2022-11-12T04:47:30;100298.50;;;10.88;100.00
10948;BME280;5526;42.070;24.752;2022-11-12T04:49:58;100335.19;;;11.01;100.00
10948;BME280;5526;42.070;24.752;2022-11-12T04:52:28;100300.81;;;10.67;100.00
10948;BME280;5526;42.070;24.752;2022-11-12T04:54:56;100295.13;;;10.52;100.00
10948;BME280;5526;42.070;24.752;2022-11-12T04:57:25;100312.81;;;10.45;100.00
10948;BME280;5526;42.070;24.752;2022-11-12T04:59:52;100302.88;;;10.29;100.00
10948;BME280;5526;42.070;24.752;2022-11-12T05:02:20;100324.50;;;10.31;100.00
10948;BME280;5526;42.070;24.752;2022-11-12T05:04:47;100360.91;;;10.34;100.00
10948;BME280;5526;42.070;24.752;2022-11-12T05:07:15;100324.13;;;10.09;100.00
10948;BME280;5526;42.070;24.752;2022-11-12T05:09:45;100369.19;;;10.37;100.00
10948;BME280;5526;42.070;24.752;2022-11-12T05:12:12;100339.59;;;10.24;100.00
10948;BME280;5526;42.070;24.752;2022-11-12T05:14:40;100314.22;;;10.11;100.00
10948;BME280;5526;42.070;24.752;2022-11-12T05:17:08;100337.25;;;10.16;100.00
10948;BME280;5526;42.070;24.752;2022-11-12T05:19:35;100390.47;;;10.54;100.00
10948;BME280;5526;42.070;24.752;2022-11-12T05:22:02;100366.09;;;10.40;100.00
10948;BME280;5526;42.070;24.752;2022-11-12T05:24:35;100399.69;;;10.63;100.00
10948;BME280;5526;42.070;24.752;2022-11-12T05:27:07;100338.69;;;10.30;100.00
10948;BME280;5526;42.070;24.752;2022-11-12T05:29:35;100335.03;;;10.31;100.00
10948;BME280;5526;42.070;24.752;2022-11-12T05:32:03;100368.16;;;10.56;100.00
10948;BME280;5526;42.070;24.752;2022-11-12T05:34:31;100344.72;;;10.55;100.00
10948;BME280;5526;42.070;24.752;2022-11-12T05:36:58;100359.81;;;10.59;100.00
10948;BME280;5526;42.070;24.752;2022-11-12T05:39:26;100374.84;;;10.59;100.00
10948;BME280;5526;42.070;24.752;2022-11-12T05:41:54;100373.72;;;10.48;100.00
10948;BME280;5526;42.070;24.752;2022-11-12T05:44:23;100404.94;;;10.81;100.00
10948;BME280;5526;42.070;24.752;2022-11-12T05:46:50;100369.63;;;10.52;100.00
10948;BME280;5526;42.070;24.752;2022-11-12T05:49:18;100361.50;;;10.54;100.00
10948;BME280;5526;42.070;24.752;2022-11-12T05:51:45;100402.47;;;10.68;100.00
10948;BME280;5526;42.070;24.752;2022-11-12T05:54:13;100396.81;;;10.64;100.00
10948;BME280;5526;42.070;24.752;2022-11-12T05:56:40;100373.22;;;10.40;100.00
10948;BME280;5526;42.070;24.752;2022-11-12T05:59:09;100400.22;;;10.53;100.00
10948;BME280;5526;42.070;24.752;2022-11-12T06:01:39;100387.50;;;10.26;100.00
10948;BME280;5526;42.070;24.752;2022-11-12T06:04:12;100408.22;;;10.22;100.00
10948;BME280;5526;42.070;24.752;2022-11-12T06:06:41;100432.94;;;10.39;100.00
10948;BME280;5526;42.070;24.752;2022-11-12T06:09:09;100470.78;;;10.63;100.00
10948;BME280;5526;42.070;24.752;2022-11-12T06:11:38;100426.97;;;10.50;100.00
10948;BME280;5526;42.070;24.752;2022-11-12T06:14:05;100411.88;;;10.39;100.00
10948;BME280;5526;42.070;24.752;2022-11-12T06:16:33;100436.94;;;10.42;100.00
10948;BME280;5526;42.070;24.752;2022-11-12T06:19:02;100443.53;;;10.33;100.00
10948;BME280;5526;42.070;24.752;2022-11-12T06:21:29;100435.97;;;10.18;100.00
10948;BME280;5526;42.070;24.752;2022-11-12T06:23:58;100441.09;;;10.07;100.00
10948;BME280;5526;42.070;24.752;2022-11-12T06:26:27;100432.06;;;9.96;100.00
10948;BME280;5526;42.070;24.752;2022-11-12T06:28:55;100441.41;;;9.92;100.00
10948;BME280;5526;42.070;24.752;2022-11-12T06:31:23;100450.94;;;9.87;100.00
10948;BME280;5526;42.070;24.752;2022-11-12T06:33:51;100446.88;;;9.91;100.00
10948;BME280;5526;42.070;24.752;2022-11-12T06:36:20;100462.63;;;9.91;100.00
10948;BME280;5526;42.070;24.752;2022-11-12T06:38:47;100520.78;;;10.14;100.00
10948;BME280;5526;42.070;24.752;2022-11-12T06:41:15;100458.16;;;9.67;100.00
10948;BME280;5526;42.070;24.752;2022-11-12T06:43:42;100466.56;;;9.82;100.00
10948;BME280;5526;42.070;24.752;2022-11-12T06:46:12;100478.56;;;9.96;100.00
10948;BME280;5526;42.070;24.752;2022-11-12T06:48:40;100503.22;;;10.01;100.00
10948;BME280;5526;42.070;24.752;2022-11-12T06:51:09;100510.25;;;10.14;100.00
10948;BME280;5526;42.070;24.752;2022-11-12T06:53:39;100492.13;;;9.99;100.00
10948;BME280;5526;42.070;24.752;2022-11-12T06:56:07;100477.22;;;9.87;100.00
10948;BME280;5526;42.070;24.752;2022-11-12T06:58:35;100528.38;;;10.28;100.00
10948;BME280;5526;42.070;24.752;2022-11-12T07:01:07;100471.66;;;10.01;100.00
10948;BME280;5526;42.070;24.752;2022-11-12T07:03:34;100509.72;;;10.30;100.00
10948;BME280;5526;42.070;24.752;2022-11-12T07:06:07;100527.03;;;10.44;100.00
10948;BME280;5526;42.070;24.752;2022-11-12T07:08:35;100514.03;;;10.49;100.00
10948;BME280;5526;42.070;24.752;2022-11-12T07:11:05;100508.91;;;10.54;100.00
10948;BME280;5526;42.070;24.752;2022-11-12T07:13:33;100476.69;;;10.34;100.00
10948;BME280;5526;42.070;24.752;2022-11-12T07:16:02;100483.75;;;10.40;100.00
10948;BME280;5526;42.070;24.752;2022-11-12T07:18:30;100537.50;;;10.75;100.00
10948;BME280;5526;42.070;24.752;2022-11-12T07:20:58;100494.47;;;10.63;100.00
10948;BME280;5526;42.070;24.752;2022-11-12T07:23:26;100465.69;;;10.43;100.00
10948;BME280;5526;42.070;24.752;2022-11-12T07:25:55;100487.44;;;10.57;100.00
10948;BME280;5526;42.070;24.752;2022-11-12T07:28:25;100494.66;;;10.43;100.00
10948;BME280;5526;42.070;24.752;2022-11-12T07:30:57;100480.31;;;10.39;100.00
10948;BME280;5526;42.070;24.752;2022-11-12T07:33:25;100490.19;;;10.44;100.00
10948;BME280;5526;42.070;24.752;2022-11-12T07:35:57;100491.88;;;10.56;100.00
10948;BME280;5526;42.070;24.752;2022-11-12T07:38:26;100486.09;;;10.48;100.00
10948;BME280;5526;42.070;24.752;2022-11-12T07:40:58;100519.50;;;10.72;100.00
10948;BME280;5526;42.070;24.752;2022-11-12T07:43:30;100488.88;;;10.53;100.00
10948;BME280;5526;42.070;24.752;2022-11-12T07:45:58;100475.09;;;10.33;100.00
10948;BME280;5526;42.070;24.752;2022-11-12T07:48:26;100522.19;;;10.65;100.00
10948;BME280;5526;42.070;24.752;2022-11-12T07:50:59;100485.69;;;10.51;100.00
10948;BME280;5526;42.070;24.752;2022-11-12T07:53:27;100498.19;;;10.55;100.00
10948;BME280;5526;42.070;24.752;2022-11-12T07:55:57;100483.53;;;10.41;100.00
10948;BME280;5526;42.070;24.752;2022-11-12T07:58:26;100509.75;;;10.54;100.00
10948;BME280;5526;42.070;24.752;2022-11-12T08:00:55;100497.81;;;10.52;100.00
10948;BME280;5526;42.070;24.752;2022-11-12T08:03:23;100480.50;;;10.38;100.00
10948;BME280;5526;42.070;24.752;2022-11-12T08:05:50;100542.84;;;10.86;100.00
10948;BME280;5526;42.070;24.752;2022-11-12T08:08:18;100504.50;;;10.72;100.00
10948;BME280;5526;42.070;24.752;2022-11-12T08:10:45;100486.94;;;10.66;100.00
10948;BME280;5526;42.070;24.752;2022-11-12T08:13:13;100502.81;;;10.78;100.00
10948;BME280;5526;42.070;24.752;2022-11-12T08:15:40;100536.06;;;10.97;100.00
10948;BME280;5526;42.070;24.752;2022-11-12T08:18:09;100484.38;;;10.60;100.00
10948;BME280;5526;42.070;24.752;2022-11-12T08:20:37;100546.03;;;10.95;100.00
10948;BME280;5526;42.070;24.752;2022-11-12T08:23:04;100502.38;;;10.63;100.00
10948;BME280;5526;42.070;24.752;2022-11-12T08:25:32;100478.63;;;10.45;100.00
10948;BME280;5526;42.070;24.752;2022-11-12T08:27:59;100496.63;;;10.48;100.00
10948;BME280;5526;42.070;24.752;2022-11-12T08:30:27;100515.44;;;10.51;100.00
10948;BME280;5526;42.070;24.752;2022-11-12T08:32:56;100491.31;;;10.30;100.00
10948;BME280;5526;42.070;24.752;2022-11-12T08:35:27;100500.78;;;10.37;100.00
10948;BME280;5526;42.070;24.752;2022-11-12T08:37:58;100523.03;;;10.35;100.00
10948;BME280;5526;42.070;24.752;2022-11-12T08:40:27;100520.88;;;10.32;100.00
10948;BME280;5526;42.070;24.752;2022-11-12T08:42:58;100508.28;;;10.34;100.00
10948;BME280;5526;42.070;24.752;2022-11-12T08:45:26;100555.13;;;10.50;100.00
10948;BME280;5526;42.070;24.752;2022-11-12T08:47:58;100518.28;;;10.25;100.00
10948;BME280;5526;42.070;24.752;2022-11-12T08:50:27;100519.47;;;10.29;100.00
10948;BME280;5526;42.070;24.752;2022-11-12T08:52:58;100505.28;;;10.30;100.00
10948;BME280;5526;42.070;24.752;2022-11-12T08:55:26;100549.44;;;10.53;100.00
10948;BME280;5526;42.070;24.752;2022-11-12T08:57:54;100498.19;;;10.31;100.00
10948;BME280;5526;42.070;24.752;2022-11-12T09:00:24;100554.78;;;10.64;100.00
10948;BME280;5526;42.070;24.752;2022-11-12T09:02:51;100516.09;;;10.47;100.00
10948;BME280;5526;42.070;24.752;2022-11-12T09:05:19;100516.25;;;10.52;100.00
10948;BME280;5526;42.070;24.752;2022-11-12T09:07:55;100502.19;;;10.58;100.00
10948;BME280;5526;42.070;24.752;2022-11-12T09:10:23;100472.75;;;10.49;100.00
10948;BME280;5526;42.070;24.752;2022-11-12T09:12:51;100537.91;;;10.96;100.00
10948;BME280;5526;42.070;24.752;2022-11-12T09:15:19;100491.41;;;10.84;100.00
10948;BME280;5526;42.070;24.752;2022-11-12T09:17:46;100511.75;;;11.13;100.00
10948;BME280;5526;42.070;24.752;2022-11-12T09:20:14;100539.44;;;11.40;100.00
10948;BME280;5526;42.070;24.752;2022-11-12T09:22:41;100514.09;;;11.39;100.00
10948;BME280;5526;42.070;24.752;2022-11-12T09:25:10;100495.34;;;11.29;100.00
10948;BME280;5526;42.070;24.752;2022-11-12T09:27:38;100533.81;;;11.54;100.00
10948;BME280;5526;42.070;24.752;2022-11-12T09:30:06;100524.38;;;11.65;100.00
10948;BME280;5526;42.070;24.752;2022-11-12T09:32:34;100506.03;;;11.52;100.00
10948;BME280;5526;42.070;24.752;2022-11-12T09:35:02;100518.78;;;11.73;100.00
10948;BME280;5526;42.070;24.752;2022-11-12T09:37:29;100478.94;;;11.63;100.00
10948;BME280;5526;42.070;24.752;2022-11-12T09:39:57;100483.66;;;11.72;100.00
10948;BME280;5526;42.070;24.752;2022-11-12T09:42:26;100531.25;;;12.07;100.00
10948;BME280;5526;42.070;24.752;2022-11-12T09:44:57;100494.06;;;11.97;100.00
10948;BME280;5526;42.070;24.752;2022-11-12T09:47:28;100507.75;;;12.05;100.00
10948;BME280;5526;42.070;24.752;2022-11-12T09:55:23;100485.13;;;11.98;100.00
10948;BME280;5526;42.070;24.752;2022-11-12T09:57:57;100543.19;;;12.39;100.00
10948;BME280;5526;42.070;24.752;2022-11-12T10:00:25;100519.59;;;12.26;100.00
10948;BME280;5526;42.070;24.752;2022-11-12T10:02:56;100459.66;;;12.03;100.00
10948;BME280;5526;42.070;24.752;2022-11-12T10:05:32;100463.16;;;12.27;100.00
10948;BME280;5526;42.070;24.752;2022-11-12T10:08:26;100504.84;;;12.48;96.02
10948;BME280;5526;42.070;24.752;2022-11-12T10:11:02;100447.50;;;12.14;99.74
10948;BME280;5526;42.070;24.752;2022-11-12T10:13:45;100448.66;;;12.18;100.00
10948;BME280;5526;42.070;24.752;2022-11-12T10:16:26;100464.50;;;12.06;100.00
10948;BME280;5526;42.070;24.752;2022-11-12T10:19:24;100470.78;;;11.94;98.20
10948;BME280;5526;42.070;24.752;2022-11-12T10:21:59;100474.34;;;12.11;98.65
10948;BME280;5526;42.070;24.752;2022-11-12T10:24:36;100457.28;;;12.13;100.00
10948;BME280;5526;42.070;24.752;2022-11-12T10:27:12;100448.66;;;12.06;98.84
10948;BME280;5526;42.070;24.752;2022-11-12T10:29:48;100459.66;;;11.92;98.40
10948;BME280;5526;42.070;24.752;2022-11-12T10:32:19;100478.47;;;11.95;99.82
10948;BME280;5526;42.070;24.752;2022-11-12T10:34:47;100505.00;;;11.71;100.00
10948;BME280;5526;42.070;24.752;2022-11-12T10:37:18;100520.97;;;11.76;100.00
10948;BME280;5526;42.070;24.752;2022-11-12T10:39:46;100513.13;;;11.69;100.00
10948;BME280;5526;42.070;24.752;2022-11-12T10:42:15;100457.72;;;11.40;100.00
10948;BME280;5526;42.070;24.752;2022-11-12T10:44:46;100449.03;;;11.39;100.00
10948;BME280;5526;42.070;24.752;2022-11-12T10:47:23;100460.84;;;11.19;100.00
10948;BME280;5526;42.070;24.752;2022-11-12T10:52:55;100484.03;;;11.10;100.00
10948;BME280;5526;42.070;24.752;2022-11-12T10:55:25;100446.00;;;10.70;100.00
10948;BME280;5526;42.070;24.752;2022-11-12T10:58:12;100447.69;;;10.40;100.00
10948;BME280;5526;42.070;24.752;2022-11-12T11:00:57;100549.00;;;10.98;100.00
10948;BME280;5526;42.070;24.752;2022-11-12T11:03:26;100456.38;;;10.65;100.00
10948;BME280;5526;42.070;24.752;2022-11-12T11:05:57;100475.41;;;10.85;100.00
10948;BME280;5526;42.070;24.752;2022-11-12T11:08:37;100487.94;;;10.90;100.00
10948;BME280;5526;42.070;24.752;2022-11-12T11:11:18;100451.56;;;10.80;100.00
10948;BME280;5526;42.070;24.752;2022-11-12T11:13:46;100457.94;;;10.91;100.00
10948;BME280;5526;42.070;24.752;2022-11-12T11:16:18;100523.69;;;11.33;100.00
10948;BME280;5526;42.070;24.752;2022-11-12T11:18:48;100498.59;;;11.13;100.00
10948;BME280;5526;42.070;24.752;2022-11-12T11:21:29;100449.06;;;10.85;100.00
10948;BME280;5526;42.070;24.752;2022-11-12T11:24:08;100453.94;;;10.82;100.00
10948;BME280;5526;42.070;24.752;2022-11-12T11:26:48;100438.03;;;10.59;100.00
10948;BME280;5526;42.070;24.752;2022-11-12T11:29:32;100453.97;;;10.64;100.00
10948;BME280;5526;42.070;24.752;2022-11-12T11:32:12;100506.50;;;10.95;100.00
10948;BME280;5526;42.070;24.752;2022-11-12T11:34:48;100446.69;;;10.59;100.00
10948;BME280;5526;42.070;24.752;2022-11-12T11:37:24;100464.19;;;10.72;100.00
10948;BME280;5526;42.070;24.752;2022-11-12T11:40:00;100451.56;;;10.80;100.00
10948;BME280;5526;42.070;24.752;2022-11-12T11:42:48;100418.91;;;10.45;100.00
10948;BME280;5526;42.070;24.752;2022-11-12T11:45:27;100424.41;;;10.44;100.00
10948;BME280;5526;42.070;24.752;2022-11-12T11:48:07;100506.88;;;10.80;100.00
10948;BME280;5526;42.070;24.752;2022-11-12T11:50:41;100528.50;;;10.82;100.00
10948;BME280;5526;42.070;24.752;2022-11-12T11:53:20;100525.97;;;10.94;100.00
10948;BME280;5526;42.070;24.752;2022-11-12T11:55:55;100425.53;;;10.30;100.00
10948;BME280;5526;42.070;24.752;2022-11-12T11:58:42;100518.47;;;10.73;100.00
10948;BME280;5526;42.070;24.752;2022-11-12T12:01:18;100480.56;;;10.56;100.00
10948;BME280;5526;42.070;24.752;2022-11-12T12:04:06;100480.72;;;10.61;100.00
10948;BME280;5526;42.070;24.752;2022-11-12T12:06:42;100466.19;;;10.34;100.00
10948;BME280;5526;42.070;24.752;2022-11-12T12:09:27;100493.25;;;10.65;100.00
10948;BME280;5526;42.070;24.752;2022-11-12T12:12:04;100425.59;;;10.23;100.00
10948;BME280;5526;42.070;24.752;2022-11-12T12:14:46;100446.72;;;10.35;100.00
10948;BME280;5526;42.070;24.752;2022-11-12T12:17:32;100451.72;;;10.43;100.00
10948;BME280;5526;42.070;24.752;2022-11-12T12:20:15;100510.41;;;10.68;100.00
10948;BME280;5526;42.070;24.752;2022-11-12T12:22:48;100469.25;;;10.73;100.00
10948;BME280;5526;42.070;24.752;2022-11-12T12:25:20;100403.47;;;10.49;100.00
10948;BME280;5526;42.070;24.752;2022-11-12T12:27:55;100448.41;;;10.72;100.00
10948;BME280;5526;42.070;24.752;2022-11-12T12:30:28;100500.56;;;10.99;100.00
10948;BME280;5526;42.070;24.752;2022-11-12T12:33:00;100424.03;;;10.58;100.00
10948;BME280;5526;42.070;24.752;2022-11-12T12:35:35;100501.59;;;11.16;100.00
10948;BME280;5526;42.070;24.752;2022-11-12T12:38:10;100467.22;;;10.93;100.00
10948;BME280;5526;42.070;24.752;2022-11-12T12:40:42;100441.38;;;10.66;100.00
10948;BME280;5526;42.070;24.752;2022-11-12T12:43:18;100417.97;;;10.40;100.00
10948;BME280;5526;42.070;24.752;2022-11-12T12:45:47;100450.69;;;10.68;100.00
10948;BME280;5526;42.070;24.752;2022-11-12T12:48:18;100510.44;;;11.04;100.00
10948;BME280;5526;42.070;24.752;2022-11-12T12:50:48;100501.22;;;11.13;100.00
10948;BME280;5526;42.070;24.752;2022-11-12T12:53:31;100442.09;;;10.73;100.00
10948;BME280;5526;42.070;24.752;2022-11-12T12:55:59;100433.25;;;10.67;100.00
10948;BME280;5526;42.070;24.752;2022-11-12T12:58:29;100418.06;;;10.69;100.00
10948;BME280;5526;42.070;24.752;2022-11-12T13:01:00;100438.59;;;10.61;100.00
10948;BME280;5526;42.070;24.752;2022-11-12T13:03:59;100442.19;;;10.66;100.00
10948;BME280;5526;42.070;24.752;2022-11-12T13:06:31;100474.16;;;10.88;100.00
10948;BME280;5526;42.070;24.752;2022-11-12T13:09:03;100412.47;;;10.41;100.00
10948;BME280;5526;42.070;24.752;2022-11-12T13:11:48;100444.56;;;10.50;100.00